createdAt,value
2024-01-08T00:00:40.784Z,52.39
2024-01-08T00:01:40.766Z,52.63
2024-01-08T00:02:40.727Z,52.69
2024-01-08T00:03:40.760Z,53.47
2024-01-08T00:04:40.705Z,52.70
2024-01-08T00:05:40.871Z,52.83
2024-01-08T00:06:40.753Z,52.30
2024-01-08T00:07:40.709Z,54.13
2024-01-08T00:08:40.714Z,52.13
2024-01-08T00:09:40.706Z,52.75
2024-01-08T00:10:40.716Z,54.21
2024-01-08T00:11:40.728Z,54.08
2024-01-08T00:12:40.721Z,54.18
2024-01-08T00:13:40.722Z,53.79
2024-01-08T00:14:40.718Z,51.63
2024-01-08T00:15:40.733Z,51.21
2024-01-08T00:16:40.718Z,51.93
2024-01-08T00:17:40.804Z,53.50
2024-01-08T00:18:40.804Z,53.81
2024-01-08T00:19:40.747Z,53.49
2024-01-08T00:20:40.743Z,51.95
2024-01-08T00:21:40.725Z,51.92
2024-01-08T00:22:40.759Z,52.97
2024-01-08T00:23:40.741Z,53.09
2024-01-08T00:24:40.756Z,54.40
2024-01-08T00:25:40.734Z,51.22
2024-01-08T00:27:40.743Z,52.35
2024-01-08T00:28:40.736Z,53.04
2024-01-08T00:29:40.739Z,51.85
2024-01-08T00:30:40.766Z,52.33
2024-01-08T00:31:40.829Z,51.86
2024-01-08T00:32:40.908Z,52.43
2024-01-08T00:33:40.814Z,51.90
2024-01-08T00:34:40.757Z,51.81
2024-01-08T00:35:40.807Z,51.23
2024-01-08T00:36:40.749Z,53.03
2024-01-08T00:37:40.760Z,51.75
2024-01-08T00:38:40.756Z,53.50
2024-01-08T00:39:40.755Z,51.68
2024-01-08T00:40:40.759Z,52.32
2024-01-08T00:41:40.755Z,51.24
2024-01-08T00:42:41.124Z,52.31
2024-01-08T00:43:40.759Z,53.35
2024-01-08T00:44:40.811Z,51.73
2024-01-08T00:45:40.776Z,51.47
2024-01-08T00:46:40.769Z,52.34
2024-01-08T00:47:40.852Z,54.68
2024-01-08T00:48:40.782Z,51.97
2024-01-08T00:49:40.777Z,53.18
2024-01-08T00:50:40.793Z,54.19
2024-01-08T00:51:40.782Z,54.50
2024-01-08T00:52:40.789Z,52.74
2024-01-08T00:53:40.787Z,53.38
2024-01-08T00:54:40.781Z,51.93
2024-01-08T00:55:40.793Z,54.63
2024-01-08T00:56:40.802Z,51.34
2024-01-08T00:57:40.793Z,53.41
2024-01-08T00:58:40.796Z,52.83
2024-01-08T00:59:40.798Z,52.73
2024-01-08T01:00:40.811Z,51.57
2024-01-08T01:01:40.793Z,51.11
2024-01-08T01:02:40.854Z,51.32
2024-01-08T01:03:40.981Z,54.49
2024-01-08T01:04:40.971Z,50.00
2024-01-08T01:05:40.871Z,52.27
2024-01-08T01:06:40.811Z,52.44
2024-01-08T01:07:40.826Z,51.68
2024-01-08T01:08:40.808Z,52.58
2024-01-08T01:09:40.816Z,52.58
2024-01-08T01:10:40.837Z,50.67
2024-01-08T01:11:40.818Z,52.62
2024-01-08T01:12:40.843Z,52.38
2024-01-08T01:13:40.840Z,54.35
2024-01-08T01:14:40.819Z,55.08
2024-01-08T01:15:40.827Z,51.98
2024-01-08T01:16:40.830Z,50.93
2024-01-08T01:17:40.929Z,53.99
2024-01-08T01:18:40.915Z,51.25
2024-01-08T01:19:40.834Z,54.49
2024-01-08T01:20:40.834Z,54.14
2024-01-08T01:21:40.840Z,53.33
2024-01-08T01:22:40.851Z,52.24
2024-01-08T01:23:40.878Z,51.53
2024-01-08T01:24:40.853Z,50.07
2024-01-08T01:25:40.862Z,53.04
2024-01-08T01:26:40.875Z,54.48
2024-01-08T01:27:40.889Z,52.70
2024-01-08T01:28:40.887Z,50.61
2024-01-08T01:29:40.922Z,51.23
2024-01-08T01:30:40.954Z,51.23
2024-01-08T01:31:40.912Z,53.43
2024-01-08T01:32:41.005Z,54.31
2024-01-08T01:33:40.981Z,52.14
2024-01-08T01:34:40.920Z,51.72
2024-01-08T01:35:40.970Z,53.30
2024-01-08T01:36:41.043Z,53.94
2024-01-08T01:37:40.969Z,52.29
2024-01-08T01:38:41.029Z,52.49
2024-01-08T01:39:40.935Z,52.17
2024-01-08T01:40:40.934Z,52.19
2024-01-08T01:41:41.027Z,52.21
2024-01-08T01:42:40.980Z,52.34
2024-01-08T01:43:40.978Z,52.66
2024-01-08T01:44:41.033Z,51.93
2024-01-08T01:45:40.989Z,52.31
2024-01-08T01:46:41.012Z,53.38
2024-01-08T01:47:41.152Z,53.09
2024-01-08T01:48:41.121Z,52.19
2024-01-08T01:49:41.052Z,53.29
2024-01-08T01:50:41.074Z,51.60
2024-01-08T01:51:41.064Z,53.27
2024-01-08T01:52:41.053Z,52.14
2024-01-08T01:53:41.057Z,51.60
2024-01-08T01:54:41.092Z,52.75
2024-01-08T01:55:41.089Z,51.25
2024-01-08T01:56:41.091Z,54.04
2024-01-08T01:57:41.114Z,53.97
2024-01-08T01:58:41.111Z,50.85
2024-01-08T01:59:41.200Z,53.22
2024-01-08T02:00:41.155Z,53.13
2024-01-08T02:01:41.138Z,51.86
2024-01-08T02:02:41.247Z,53.23
2024-01-08T02:03:41.191Z,51.94
2024-01-08T02:04:41.245Z,52.32
2024-01-08T02:05:41.209Z,53.03
2024-01-08T02:06:41.174Z,51.37
2024-01-08T02:07:41.181Z,52.07
2024-01-08T02:08:41.205Z,52.09
2024-01-08T02:09:41.206Z,53.98
2024-01-08T02:10:41.322Z,53.43
2024-01-08T02:11:41.309Z,52.66
2024-01-08T02:12:41.282Z,51.90
2024-01-08T02:13:41.292Z,53.16
2024-01-08T02:14:41.391Z,52.66
2024-01-08T02:15:41.316Z,52.18
2024-01-08T02:16:41.310Z,54.09
2024-01-08T02:17:41.357Z,51.56
2024-01-08T02:18:41.396Z,53.06
2024-01-08T02:19:41.337Z,52.21
2024-01-08T02:20:41.331Z,53.49
2024-01-08T02:21:41.335Z,53.60
2024-01-08T02:22:41.344Z,51.56
2024-01-08T02:23:41.357Z,53.32
2024-01-08T02:24:41.348Z,52.16
2024-01-08T02:25:41.371Z,51.37
2024-01-08T02:26:41.416Z,51.82
2024-01-08T02:27:41.374Z,52.11
2024-01-08T02:28:41.382Z,53.13
2024-01-08T02:29:41.438Z,52.25
2024-01-08T02:30:41.457Z,52.77
2024-01-08T02:31:41.454Z,54.06
2024-01-08T02:32:41.517Z,52.47
2024-01-08T02:33:41.433Z,52.35
2024-01-08T02:34:41.459Z,52.79
2024-01-08T02:35:41.446Z,52.38
2024-01-08T02:36:41.453Z,52.42
2024-01-08T02:37:41.469Z,54.76
2024-01-08T02:38:41.466Z,53.46
2024-01-08T02:39:41.469Z,53.44
2024-01-08T02:40:41.474Z,53.57
2024-01-08T02:41:41.484Z,52.57
2024-01-08T02:42:41.496Z,51.48
2024-01-08T02:43:41.498Z,51.54
2024-01-08T02:44:41.494Z,52.85
2024-01-08T02:45:41.499Z,52.42
2024-01-08T02:46:41.517Z,53.34
2024-01-08T02:47:41.858Z,51.23
2024-01-08T02:48:41.616Z,52.25
2024-01-08T02:49:41.509Z,52.64
2024-01-08T02:50:41.526Z,53.48
2024-01-08T02:51:41.522Z,54.57
2024-01-08T02:52:41.534Z,53.13
2024-01-08T02:53:41.549Z,52.31
2024-01-08T02:54:41.534Z,52.20
2024-01-08T02:55:41.532Z,50.96
2024-01-08T02:56:41.565Z,52.29
2024-01-08T02:57:41.569Z,52.96
2024-01-08T02:58:41.578Z,52.64
2024-01-08T02:59:41.560Z,51.97
2024-01-08T03:00:41.596Z,52.74
2024-01-08T03:01:41.578Z,51.24
2024-01-08T03:02:41.621Z,52.70
2024-01-08T03:03:41.635Z,52.57
2024-01-08T03:04:41.607Z,51.92
2024-01-08T03:05:41.653Z,50.48
2024-01-08T03:06:41.658Z,53.25
2024-01-08T03:07:41.628Z,53.74
2024-01-08T03:08:41.680Z,51.60
2024-01-08T03:09:41.646Z,52.60
2024-01-08T03:10:41.645Z,52.04
2024-01-08T03:11:41.664Z,51.70
2024-01-08T03:12:41.664Z,52.47
2024-01-08T03:13:41.680Z,50.79
2024-01-08T03:14:41.698Z,53.29
2024-01-08T03:15:41.709Z,50.48
2024-01-08T03:16:41.743Z,53.69
2024-01-08T03:17:41.920Z,53.24
2024-01-08T03:18:41.817Z,50.93
2024-01-08T03:19:41.721Z,51.46
2024-01-08T03:20:41.812Z,50.00
2024-01-08T03:21:41.769Z,53.19
2024-01-08T03:22:41.783Z,52.95
2024-01-08T03:23:41.896Z,52.83
2024-01-08T03:24:41.843Z,52.68
2024-01-08T03:25:41.818Z,52.50
2024-01-08T03:26:41.853Z,52.01
2024-01-08T03:27:41.815Z,52.74
2024-01-08T03:28:41.823Z,54.55
2024-01-08T03:29:41.842Z,52.72
2024-01-08T03:30:41.951Z,50.74
2024-01-08T03:31:41.846Z,55.19
2024-01-08T03:32:42.048Z,54.41
2024-01-08T03:33:41.902Z,53.23
2024-01-08T03:34:41.854Z,51.74
2024-01-08T03:35:41.897Z,53.18
2024-01-08T03:36:41.876Z,52.74
2024-01-08T03:37:41.884Z,51.24
2024-01-08T03:38:41.890Z,52.33
2024-01-08T03:39:41.892Z,53.90
2024-01-08T03:40:41.892Z,52.57
2024-01-08T03:41:41.897Z,53.23
2024-01-08T03:42:41.909Z,53.43
2024-01-08T03:43:41.912Z,52.89
2024-01-08T03:44:41.903Z,55.08
2024-01-08T03:45:41.914Z,53.34
2024-01-08T03:46:41.932Z,51.67
2024-01-08T03:47:42.080Z,51.74
2024-01-08T03:48:42.027Z,50.38
2024-01-08T03:49:41.922Z,52.64
2024-01-08T03:50:42.002Z,51.77
2024-01-08T03:51:41.943Z,53.14
2024-01-08T03:52:41.944Z,52.28
2024-01-08T03:53:41.981Z,54.38
2024-01-08T03:54:41.948Z,54.05
2024-01-08T03:55:41.970Z,51.75
2024-01-08T03:56:42.035Z,52.90
2024-01-08T03:57:41.968Z,52.45
2024-01-08T03:58:41.992Z,52.35
2024-01-08T03:59:42.019Z,51.44
2024-01-08T04:00:42.053Z,51.26
2024-01-08T04:01:42.002Z,52.13
2024-01-08T04:02:42.257Z,51.33
2024-01-08T04:03:42.060Z,54.27
2024-01-08T04:04:42.009Z,54.53
2024-01-08T04:05:42.112Z,52.15
2024-01-08T04:06:42.072Z,52.58
2024-01-08T04:07:42.034Z,51.17
2024-01-08T04:08:42.189Z,52.06
2024-01-08T04:09:42.052Z,54.19
2024-01-08T04:10:42.079Z,52.20
2024-01-08T04:11:42.082Z,53.25
2024-01-08T04:12:42.114Z,52.56
2024-01-08T04:13:42.122Z,51.65
2024-01-08T04:14:42.169Z,52.90
2024-01-08T04:15:42.143Z,51.85
2024-01-08T04:16:42.187Z,53.00
2024-01-08T04:17:42.274Z,52.57
2024-01-08T04:18:42.219Z,52.03
2024-01-08T04:19:42.157Z,51.87
2024-01-08T04:20:42.225Z,51.60
2024-01-08T04:21:42.168Z,53.39
2024-01-08T04:22:42.181Z,53.77
2024-01-08T04:23:42.192Z,51.05
2024-01-08T04:24:42.198Z,53.00
2024-01-08T04:25:42.199Z,52.81
2024-01-08T04:26:42.198Z,53.35
2024-01-08T04:27:49.402Z,50.00
2024-01-08T04:28:49.498Z,50.00
2024-01-08T04:29:49.406Z,50.00
2024-01-08T04:30:49.556Z,50.00
2024-01-08T04:31:56.774Z,50.00
2024-01-08T04:32:56.866Z,50.00
2024-01-08T04:33:56.851Z,50.00
2024-01-08T04:34:56.820Z,50.00
2024-01-08T04:35:56.776Z,50.00
2024-01-08T04:36:56.775Z,50.86
2024-01-08T04:37:56.786Z,50.44
2024-01-08T04:38:56.778Z,50.42
2024-01-08T04:39:56.813Z,51.34
2024-01-08T04:40:56.803Z,50.96
2024-01-08T04:41:56.790Z,52.31
2024-01-08T04:42:56.784Z,51.71
2024-01-08T04:43:56.828Z,50.74
2024-01-08T04:44:56.785Z,54.16
2024-01-08T04:45:56.798Z,53.56
2024-01-08T04:46:56.834Z,52.76
2024-01-08T04:47:56.873Z,51.69
2024-01-08T04:48:56.832Z,53.65
2024-01-08T04:49:56.853Z,52.06
2024-01-08T04:50:56.788Z,50.79
2024-01-08T04:51:56.791Z,52.71
2024-01-08T04:52:56.812Z,52.37
2024-01-08T04:53:56.810Z,52.14
2024-01-08T04:54:56.811Z,51.48
2024-01-08T04:55:56.824Z,50.00
2024-01-08T04:56:56.817Z,54.50
2024-01-08T04:57:56.806Z,53.24
2024-01-08T04:58:56.950Z,51.76
2024-01-08T04:59:56.803Z,52.50
2024-01-08T05:00:56.813Z,52.90
2024-01-08T05:01:56.877Z,52.21
2024-01-08T05:02:56.827Z,53.77
2024-01-08T05:03:56.816Z,53.68
2024-01-08T05:04:56.876Z,52.25
2024-01-08T05:05:56.868Z,51.08
2024-01-08T05:06:56.809Z,52.98
2024-01-08T05:07:56.835Z,53.21
2024-01-08T05:08:56.804Z,52.33
2024-01-08T05:09:56.808Z,53.71
2024-01-08T05:10:56.870Z,51.95
2024-01-08T05:11:56.811Z,52.72
2024-01-08T05:12:56.826Z,50.68
2024-01-08T05:13:56.836Z,51.64
2024-01-08T05:14:56.817Z,54.12
2024-01-08T05:15:56.818Z,53.55
2024-01-08T05:16:56.881Z,52.27
2024-01-08T05:17:57.000Z,53.03
2024-01-08T05:18:56.937Z,52.60
2024-01-08T05:19:56.873Z,53.81
2024-01-08T05:20:56.834Z,53.87
2024-01-08T05:21:56.835Z,52.21
2024-01-08T05:22:56.873Z,50.83
2024-01-08T05:23:56.832Z,53.22
2024-01-08T05:24:56.845Z,50.65
2024-01-08T05:25:56.880Z,53.56
2024-01-08T05:26:56.842Z,52.77
2024-01-08T05:27:56.867Z,52.88
2024-01-08T05:28:56.892Z,52.22
2024-01-08T05:29:56.845Z,52.33
2024-01-08T05:30:57.068Z,54.14
2024-01-08T05:31:56.874Z,51.83
2024-01-08T05:32:56.944Z,53.58
2024-01-08T05:33:56.887Z,52.91
2024-01-08T05:34:56.883Z,54.29
2024-01-08T05:35:56.864Z,53.16
2024-01-08T05:36:56.883Z,53.67
2024-01-08T05:37:56.888Z,53.34
2024-01-08T05:38:56.871Z,52.04
2024-01-08T05:39:56.875Z,52.58
2024-01-08T05:40:57.177Z,52.25
2024-01-08T05:41:56.893Z,51.78
2024-01-08T05:42:56.874Z,52.58
2024-01-08T05:43:56.928Z,52.59
2024-01-08T05:44:56.889Z,53.27
2024-01-08T05:45:56.888Z,50.36
2024-01-08T05:46:56.919Z,51.59
2024-01-08T05:47:57.014Z,50.80
2024-01-08T05:48:56.997Z,53.71
2024-01-08T05:49:56.915Z,52.96
2024-01-08T05:50:56.906Z,52.55
2024-01-08T05:51:56.902Z,53.94
2024-01-08T05:52:56.985Z,51.87
2024-01-08T05:53:56.902Z,53.65
2024-01-08T05:54:56.909Z,52.44
2024-01-08T05:55:56.937Z,54.61
2024-01-08T05:56:56.913Z,52.46
2024-01-08T05:57:56.906Z,51.68
2024-01-08T05:58:56.931Z,52.40
2024-01-08T05:59:56.910Z,52.86
2024-01-08T06:00:56.907Z,52.06
2024-01-08T06:01:56.932Z,52.42
2024-01-08T06:02:56.930Z,53.33
2024-01-08T06:03:56.953Z,51.94
2024-01-08T06:04:56.955Z,52.84
2024-01-08T06:05:57.093Z,51.11
2024-01-08T06:06:56.940Z,53.04
2024-01-08T06:07:56.961Z,53.00
2024-01-08T06:08:56.926Z,51.05
2024-01-08T06:09:56.932Z,53.65
2024-01-08T06:10:56.963Z,51.33
2024-01-08T06:11:56.934Z,52.01
2024-01-08T06:12:56.971Z,52.28
2024-01-08T06:13:57.974Z,51.53
2024-01-08T06:14:57.003Z,51.32
2024-01-08T06:15:56.937Z,52.47
2024-01-08T06:16:57.000Z,50.06
2024-01-08T06:17:56.977Z,50.97
2024-01-08T06:18:56.987Z,50.52
2024-01-08T06:19:56.982Z,54.59
2024-01-08T06:20:56.952Z,53.60
2024-01-08T06:21:56.946Z,54.47
2024-01-08T06:22:57.030Z,54.24
2024-01-08T06:23:56.965Z,54.99
2024-01-08T06:24:56.963Z,56.30
2024-01-08T06:25:57.039Z,50.39
2024-01-08T06:26:56.959Z,50.00
2024-01-08T06:27:56.965Z,50.00
2024-01-08T06:28:57.023Z,52.04
2024-01-08T06:29:56.975Z,51.29
2024-01-08T06:30:57.080Z,50.00
2024-01-08T06:31:57.074Z,51.83
2024-01-08T06:32:57.162Z,51.70
2024-01-08T06:33:57.115Z,51.57
2024-01-08T06:34:57.019Z,50.78
2024-01-08T06:35:57.081Z,52.70
2024-01-08T06:36:57.010Z,51.63
2024-01-08T06:37:57.056Z,53.71
2024-01-08T06:38:56.991Z,53.65
2024-01-08T06:39:56.985Z,56.06
2024-01-08T06:40:57.166Z,55.71
2024-01-08T06:41:57.976Z,56.52
2024-01-08T06:43:01.301Z,55.91
2024-01-08T06:43:58.037Z,56.25
2024-01-08T06:44:56.997Z,57.44
2024-01-08T06:45:57.018Z,59.51
2024-01-08T06:46:57.078Z,64.71
2024-01-08T06:47:57.091Z,71.95
2024-01-08T06:48:57.090Z,74.49
2024-01-08T06:49:57.038Z,76.36
2024-01-08T06:50:56.996Z,79.87
2024-01-08T06:51:57.028Z,81.27
2024-01-08T06:52:57.501Z,80.43
2024-01-08T06:53:57.043Z,82.38
2024-01-08T06:54:57.010Z,82.29
2024-01-08T06:55:57.022Z,84.55
2024-01-08T06:56:57.090Z,86.01
2024-01-08T06:57:57.038Z,86.59
2024-01-08T06:58:57.052Z,86.64
2024-01-08T06:59:57.086Z,87.15
2024-01-08T07:00:57.087Z,87.29
2024-01-08T07:01:57.473Z,86.72
2024-01-08T07:02:57.289Z,89.02
2024-01-08T07:03:57.189Z,89.85
2024-01-08T07:04:57.412Z,89.91
2024-01-08T07:05:57.452Z,89.45
2024-01-08T07:06:57.367Z,89.74
2024-01-08T07:07:57.576Z,91.73
2024-01-08T07:08:57.509Z,92.93
2024-01-08T07:09:57.539Z,92.48
2024-01-08T07:10:57.664Z,92.71
2024-01-08T07:11:57.713Z,90.37
2024-01-08T07:12:57.750Z,91.90
2024-01-08T07:13:58.277Z,93.95
2024-01-08T07:14:57.899Z,92.22
2024-01-08T07:15:57.963Z,93.90
2024-01-08T07:16:58.074Z,92.86
2024-01-08T07:17:59.962Z,93.54
2024-01-08T07:18:58.188Z,93.81
2024-01-08T07:19:58.263Z,93.87
2024-01-08T07:20:58.279Z,93.87
2024-01-08T07:21:58.377Z,95.80
2024-01-08T07:22:58.485Z,95.49
2024-01-08T07:23:58.551Z,96.52
2024-01-08T07:24:58.575Z,97.25
2024-01-08T07:25:58.679Z,95.45
2024-01-08T07:26:58.693Z,97.60
2024-01-08T07:27:58.779Z,96.62
2024-01-08T07:28:58.855Z,98.10
2024-01-08T07:29:58.917Z,97.65
2024-01-08T07:30:59.089Z,98.62
2024-01-08T07:31:59.109Z,97.35
2024-01-08T07:32:59.207Z,97.07
2024-01-08T07:33:59.333Z,96.69
2024-01-08T07:34:59.332Z,97.57
2024-01-08T07:35:59.328Z,97.39
2024-01-08T07:36:59.401Z,98.53
2024-01-08T07:38:00.058Z,95.48
2024-01-08T07:39:00.011Z,97.39
2024-01-08T07:39:59.615Z,96.05
2024-01-08T07:40:59.669Z,97.81
2024-01-08T07:41:59.712Z,99.16
2024-01-08T07:42:59.961Z,102.21
2024-01-08T07:43:59.898Z,102.53
2024-01-08T07:45:00.062Z,106.29
2024-01-08T07:45:59.902Z,108.75
2024-01-08T07:47:00.532Z,108.40
2024-01-08T07:48:00.371Z,110.81
2024-01-08T07:49:00.043Z,116.88
2024-01-08T07:49:59.996Z,117.71
2024-01-08T07:51:00.060Z,121.40
2024-01-08T07:52:00.011Z,123.80
2024-01-08T07:53:00.055Z,126.82
2024-01-08T07:54:00.088Z,128.98
2024-01-08T07:55:00.047Z,131.86
2024-01-08T07:56:00.121Z,135.30
2024-01-08T07:57:02.835Z,138.74
2024-01-08T07:58:00.077Z,148.12
2024-01-08T07:59:00.110Z,153.11
2024-01-08T08:00:00.095Z,154.18
2024-01-08T08:01:00.122Z,168.26
2024-01-08T08:02:00.315Z,168.66
2024-01-08T08:03:00.175Z,170.87
2024-01-08T08:04:03.300Z,171.61
2024-01-08T08:05:00.149Z,171.74
2024-01-08T08:06:00.291Z,172.81
2024-01-08T08:07:00.156Z,174.19
2024-01-08T08:08:00.202Z,177.52
2024-01-08T08:09:00.132Z,180.69
2024-01-08T10:24:02.733Z,50.00
2024-01-08T10:24:25.125Z,50.00
2024-01-08T10:25:25.067Z,50.00
2024-01-08T10:26:25.151Z,50.00
2024-01-08T10:27:25.055Z,50.00
2024-01-08T10:28:25.068Z,50.00
2024-01-08T10:29:25.099Z,48.95
2024-01-08T10:30:25.092Z,47.98
2024-01-08T10:31:25.073Z,50.00
2024-01-08T10:32:25.217Z,50.23
2024-01-08T10:33:25.632Z,50.00
2024-01-08T10:34:25.114Z,52.01
2024-01-08T10:35:25.090Z,49.74
2024-01-08T10:36:25.064Z,48.27
2024-01-08T10:37:25.061Z,50.00
2024-01-08T10:38:25.540Z,50.16
2024-01-08T10:39:30.906Z,53.00
2024-01-08T10:40:26.125Z,52.11
2024-01-08T10:41:25.148Z,46.26
2024-01-08T10:42:25.121Z,43.89
2024-01-08T10:43:25.479Z,41.55
2024-01-08T10:44:25.225Z,41.23
2024-01-08T10:45:25.119Z,52.95
2024-01-08T10:46:25.120Z,52.76
2024-01-08T10:47:28.710Z,55.54
2024-01-08T10:48:25.602Z,55.63
2024-01-08T10:49:25.185Z,55.94
2024-01-08T10:50:25.183Z,56.35
2024-01-08T10:51:25.127Z,57.94
2024-01-08T10:52:25.155Z,56.71
2024-01-08T10:53:25.520Z,65.94
2024-01-08T10:54:25.145Z,61.27
2024-01-08T10:55:25.152Z,63.77
2024-01-08T10:56:25.156Z,59.50
2024-01-08T10:57:25.145Z,57.18
2024-01-08T10:58:25.153Z,61.72
2024-01-08T10:59:25.210Z,66.84
2024-01-08T11:00:25.154Z,62.36
2024-01-08T11:01:25.144Z,66.19
2024-01-08T11:02:25.197Z,67.56
2024-01-08T11:03:25.215Z,62.75
2024-01-08T11:04:25.194Z,69.47
2024-01-08T11:05:25.326Z,73.31
2024-01-08T11:06:25.207Z,70.13
2024-01-08T11:07:25.153Z,73.58
2024-01-08T11:08:25.243Z,76.96
2024-01-08T11:09:25.237Z,74.65
2024-01-08T11:10:25.199Z,76.38
2024-01-08T11:11:25.259Z,80.65
2024-01-08T11:12:25.312Z,79.88
2024-01-08T11:13:25.400Z,80.95
2024-01-08T11:14:25.500Z,82.36
2024-01-08T11:15:25.504Z,82.03
2024-01-08T11:16:25.604Z,86.43
2024-01-08T11:17:25.768Z,86.57
2024-01-08T11:18:29.390Z,90.14
2024-01-08T11:19:26.758Z,90.33
2024-01-08T11:20:25.737Z,91.42
2024-01-08T11:21:25.728Z,93.60
2024-01-08T11:22:25.771Z,97.80
2024-01-08T11:23:25.811Z,100.02
2024-01-08T11:24:25.718Z,102.89
2024-01-08T11:25:25.729Z,104.18
2024-01-08T11:26:25.745Z,108.94
2024-01-08T11:27:25.735Z,112.00
2024-01-08T11:28:25.729Z,111.79
2024-01-08T11:29:26.039Z,112.03
2024-01-08T11:30:25.916Z,104.58
2024-01-08T11:31:25.911Z,106.71
2024-01-08T11:32:26.010Z,101.96
2024-01-08T11:33:26.556Z,100.80
2024-01-08T11:34:26.173Z,97.64
2024-01-08T11:35:26.128Z,98.25
2024-01-08T11:36:26.162Z,95.83
2024-01-08T11:37:26.223Z,96.46
2024-01-08T11:38:26.383Z,92.12
2024-01-08T11:39:26.365Z,87.75
2024-01-08T11:40:26.415Z,86.54
2024-01-08T11:41:26.428Z,84.34
2024-01-08T11:42:26.426Z,81.23
2024-01-08T11:43:26.518Z,81.96
2024-01-08T11:44:26.541Z,79.76
2024-01-08T11:45:26.480Z,79.62
2024-01-08T11:46:26.461Z,78.17
2024-01-08T11:47:26.499Z,78.47
2024-01-08T11:48:26.643Z,73.95
2024-01-08T11:49:26.524Z,74.90
2024-01-08T11:50:26.572Z,77.05
2024-01-08T11:51:26.561Z,73.30
2024-01-08T11:52:26.596Z,70.35
2024-01-08T11:53:26.650Z,69.38
2024-01-08T11:54:26.649Z,72.21
2024-01-08T11:55:26.688Z,69.63
2024-01-08T11:56:26.825Z,68.02
2024-01-08T11:57:26.838Z,65.04
2024-01-08T11:58:26.802Z,66.48
2024-01-08T11:59:26.929Z,66.02
2024-01-08T12:00:26.866Z,69.41
2024-01-08T12:01:26.906Z,64.32
2024-01-08T12:02:27.027Z,63.14
2024-01-08T12:03:27.053Z,60.72
2024-01-08T12:04:27.028Z,63.30
2024-01-08T12:05:27.146Z,64.91
2024-01-08T12:06:27.222Z,63.91
2024-01-08T12:07:27.169Z,57.59
2024-01-08T12:08:27.238Z,63.73
2024-01-08T12:09:27.336Z,55.96
2024-01-08T12:10:27.292Z,57.71
2024-01-08T12:11:27.398Z,59.43
2024-01-08T12:12:27.395Z,53.93
2024-01-08T12:13:27.436Z,57.02
2024-01-08T12:14:27.480Z,50.66
2024-01-08T12:15:27.542Z,53.27
2024-01-08T12:16:27.577Z,49.55
2024-01-08T12:17:27.725Z,53.89
2024-01-08T12:18:27.821Z,53.50
2024-01-08T12:19:27.794Z,50.90
2024-01-08T12:20:27.803Z,51.91
2024-01-08T12:21:36.748Z,49.50
2024-01-08T12:22:28.849Z,49.71
2024-01-08T12:23:27.909Z,48.31
2024-01-08T12:24:27.862Z,47.87
2024-01-08T12:25:27.897Z,46.91
2024-01-08T12:26:27.907Z,41.75
2024-01-08T12:27:27.876Z,54.32
2024-01-08T12:28:27.839Z,56.79
2024-01-08T12:29:27.867Z,52.57
2024-01-08T12:30:27.924Z,52.10
2024-01-08T12:31:27.842Z,57.97
2024-01-08T12:32:27.965Z,55.61
2024-01-08T12:33:28.060Z,50.97
2024-01-08T12:34:28.054Z,55.21
2024-01-08T12:35:28.154Z,54.09
2024-01-08T12:36:28.113Z,53.33
2024-01-08T12:37:28.172Z,50.56
2024-01-08T12:38:28.239Z,60.07
2024-01-08T12:39:28.292Z,56.34
2024-01-08T12:40:28.342Z,55.95
2024-01-08T12:41:28.424Z,55.28
2024-01-08T12:42:28.462Z,53.27
2024-01-08T12:43:28.531Z,50.19
2024-01-08T12:44:29.067Z,53.27
2024-01-08T12:45:28.647Z,57.63
2024-01-08T12:46:28.736Z,53.45
2024-01-08T12:47:28.906Z,54.53
2024-01-08T12:48:29.003Z,51.35
2024-01-08T12:49:28.990Z,52.96
2024-01-08T12:50:29.007Z,52.05
2024-01-08T12:51:29.033Z,55.62
2024-01-08T12:52:29.088Z,54.50
2024-01-08T12:53:29.160Z,53.16
2024-01-08T12:54:29.244Z,52.37
2024-01-08T12:55:29.286Z,60.53
2024-01-08T12:56:29.361Z,54.31
2024-01-08T12:57:29.444Z,50.96
2024-01-08T12:58:29.474Z,53.42
2024-01-08T12:59:29.615Z,51.34
2024-01-08T13:00:29.613Z,49.82
2024-01-08T13:01:29.705Z,57.07
2024-01-08T13:02:29.870Z,54.13
2024-01-08T13:03:29.815Z,56.34
2024-01-08T13:04:30.016Z,52.22
2024-01-08T13:05:30.063Z,52.12
2024-01-08T13:06:30.816Z,52.96
2024-01-08T13:07:30.072Z,51.65
2024-01-08T13:08:30.148Z,52.89
2024-01-08T13:09:30.212Z,54.93
2024-01-08T13:10:30.264Z,54.08
2024-01-08T13:11:30.402Z,51.93
2024-01-08T13:12:30.400Z,57.01
2024-01-08T13:13:30.469Z,53.84
2024-01-08T13:14:30.550Z,55.29
2024-01-08T13:15:30.608Z,53.70
2024-01-08T13:16:30.725Z,53.22
2024-01-08T13:17:30.783Z,52.75
2024-01-08T13:18:31.045Z,55.63
2024-01-08T13:19:30.891Z,53.93
2024-01-08T13:20:31.084Z,52.17
2024-01-08T13:21:31.015Z,53.27
2024-01-08T13:22:31.093Z,56.44
2024-01-08T13:23:31.174Z,55.99
2024-01-08T13:24:31.303Z,52.17
2024-01-08T13:25:31.543Z,53.76
2024-01-08T13:26:31.388Z,56.69
2024-01-08T13:27:31.450Z,54.18
2024-01-08T13:28:31.506Z,54.44
2024-01-08T13:29:31.605Z,57.12
2024-01-08T13:30:31.680Z,53.08
2024-01-08T13:31:31.716Z,56.88
2024-01-08T13:32:31.832Z,54.12
2024-01-08T13:33:31.929Z,57.22
2024-01-08T13:34:32.051Z,53.30
2024-01-08T13:35:32.035Z,53.55
2024-01-08T13:36:32.069Z,57.05
2024-01-08T13:37:32.136Z,58.33
2024-01-08T13:38:32.266Z,54.41
2024-01-08T13:39:32.322Z,55.37
2024-01-08T13:40:32.364Z,55.53
2024-01-08T13:41:32.486Z,57.81
2024-01-08T13:42:32.493Z,56.96
2024-01-08T13:43:32.548Z,54.33
2024-01-08T13:44:32.658Z,54.68
2024-01-08T13:45:32.701Z,58.68
2024-01-08T13:46:32.812Z,58.02
2024-01-08T13:47:32.945Z,54.41
2024-01-08T13:48:33.335Z,52.48
2024-01-08T13:49:32.949Z,54.23
2024-01-08T13:50:32.980Z,51.09
2024-01-08T13:51:33.033Z,56.47
2024-01-08T13:52:33.065Z,54.78
2024-01-08T13:53:33.119Z,54.86
2024-01-08T13:54:33.174Z,54.07
2024-01-08T13:55:33.187Z,52.63
2024-01-08T13:56:33.262Z,55.41
2024-01-08T13:57:33.226Z,56.62
2024-01-08T13:58:33.230Z,54.24
2024-01-08T13:59:33.264Z,54.50
2024-01-08T14:00:33.278Z,51.92
2024-01-08T14:01:33.287Z,51.79
2024-01-08T14:02:33.441Z,52.18
2024-01-08T14:03:33.439Z,52.63
2024-01-08T14:04:33.359Z,54.29
2024-01-08T14:05:33.451Z,54.61
2024-01-08T14:06:33.420Z,53.02
2024-01-08T14:07:33.396Z,52.65
2024-01-08T14:08:33.483Z,51.96
2024-01-08T14:09:33.392Z,53.39
2024-01-08T14:10:33.394Z,53.80
2024-01-08T14:11:33.423Z,53.50
2024-01-08T14:12:33.433Z,54.07
2024-01-08T14:13:33.428Z,53.53
2024-01-08T14:14:33.491Z,53.51
2024-01-08T14:15:33.441Z,54.54
2024-01-08T14:16:33.430Z,54.84
2024-01-08T14:17:33.551Z,55.04
2024-01-08T14:18:33.550Z,50.71
2024-01-08T14:19:33.634Z,52.70
2024-01-08T14:20:33.512Z,54.93
2024-01-08T14:21:33.454Z,54.32
2024-01-08T14:22:33.464Z,54.52
2024-01-08T14:23:33.525Z,54.14
2024-01-08T14:24:33.483Z,54.29
2024-01-08T14:25:33.491Z,54.70
2024-01-08T14:26:33.528Z,55.37
2024-01-08T14:27:33.501Z,54.60
2024-01-08T14:28:33.508Z,53.19
2024-01-08T14:29:33.576Z,50.63
2024-01-08T14:30:33.600Z,53.12
2024-01-08T14:31:33.531Z,54.37
2024-01-08T14:32:33.596Z,55.36
2024-01-08T14:33:33.673Z,54.75
2024-01-08T14:34:33.643Z,54.57
2024-01-08T14:35:33.660Z,52.75
2024-01-08T14:36:33.606Z,53.77
2024-01-08T14:37:33.714Z,50.83
2024-01-08T14:38:33.643Z,51.88
2024-01-08T14:39:33.614Z,53.69
2024-01-08T14:40:33.627Z,53.60
2024-01-08T14:41:33.692Z,53.49
2024-01-08T14:42:33.634Z,54.68
2024-01-08T14:43:40.947Z,50.00
2024-01-08T14:44:41.119Z,50.00
2024-01-08T14:45:40.846Z,50.00
2024-01-08T14:46:40.882Z,50.00
2024-01-08T14:47:40.949Z,50.00
2024-01-08T14:48:40.899Z,50.61
2024-01-08T14:49:40.955Z,50.39
2024-01-08T14:50:40.855Z,50.00
2024-01-08T14:51:40.850Z,53.26
2024-01-08T14:52:40.836Z,52.43
2024-01-08T14:53:40.851Z,51.87
2024-01-08T14:54:40.841Z,53.57
2024-01-08T14:55:40.848Z,52.86
2024-01-08T14:56:40.964Z,52.78
2024-01-08T14:57:40.857Z,51.06
2024-01-08T14:58:40.896Z,51.00
2024-01-08T14:59:40.891Z,50.94
2024-01-08T15:00:40.867Z,50.65
2024-01-08T15:01:40.854Z,52.89
2024-01-08T15:02:41.468Z,51.15
2024-01-08T15:03:40.894Z,54.38
2024-01-08T15:04:40.854Z,52.91
2024-01-08T15:05:41.018Z,52.11
2024-01-08T15:06:40.875Z,52.25